Time;durP1;ratioP1;P1;durP2;ratioP2;P2;SDS_P1;SDS_P2;PMS_P1;PMS_P2;Temp;Humidity;BMP_temperature;BMP_pressure;BME280_temperature;BME280_humidity;BME280_pressure;Samples;Min_cycle;Max_cycle;Signal;HPM_P1;HPM_P2
2021/11/18 00:03:27;;;;;;;8.32;5.18;;;4.40;99.90;;;;;;20784992;28;20030;-81
2021/11/18 00:13:31;;;;;;;7.00;4.38;;;4.30;99.90;;;;;;20763445;28;20682;-80
2021/11/18 00:23:36;;;;;;;7.70;4.68;;;4.40;99.90;;;;;;20746320;28;20037;-79
2021/11/18 00:33:38;;;;;;;9.27;4.97;;;4.40;99.90;;;;;;20770002;28;20031;-81
2021/11/18 00:43:39;;;;;;;6.72;4.05;;;4.40;99.90;;;;;;20772437;28;20036;-81
2021/11/18 00:53:45;;;;;;;;;;;4.20;99.90;;;;;;20768819;28;20038;-82
2021/11/18 01:03:51;;;;;;;5.15;3.50;;;4.30;99.90;;;;;;20752640;28;19913;-79
2021/11/18 01:13:52;;;;;;;6.97;4.22;;;4.30;99.90;;;;;;20795827;28;20108;-82
2021/11/18 01:23:54;;;;;;;8.52;3.75;;;4.40;99.90;;;;;;20794057;28;20041;-79
2021/11/18 01:34:04;;;;;;;6.55;3.60;;;4.40;99.90;;;;;;20794917;28;20033;-82
2021/11/18 01:44:25;;;;;;;7.35;4.43;;;4.20;99.90;;;;;;20777956;28;20025;-80
2021/11/18 02:04:56;;;;;;;10.45;4.93;;;4.30;99.90;;;;;;20924615;23;20063;-79
2021/11/18 02:15:00;;;;;;;9.43;4.88;;;4.40;99.90;;;;;;20593810;23;20042;-76
2021/11/18 02:25:09;;;;;;;8.55;5.10;;;4.20;99.90;;;;;;20693333;23;20041;-76
2021/11/18 02:35:20;;;;;;;10.07;4.70;;;4.30;99.90;;;;;;20818402;28;20068;-77
2021/11/18 02:45:25;;;;;;;8.27;4.95;;;4.40;99.90;;;;;;20834678;28;20126;-76
2021/11/18 02:55:31;;;;;;;9.13;4.95;;;4.40;99.90;;;;;;20837086;28;20037;-76
2021/11/18 03:05:32;;;;;;;10.48;4.95;;;4.40;99.90;;;;;;20833271;28;20095;-76
2021/11/18 03:15:34;;;;;;;10.50;5.78;;;4.40;99.90;;;;;;20815748;28;20029;-76
2021/11/18 03:25:35;;;;;;;;;;;4.50;99.90;;;;;;20831261;28;20037;-76
2021/11/18 03:35:48;;;;;;;10.97;5.10;;;4.60;99.90;;;;;;20830361;28;19916;-76
2021/11/18 03:45:50;;;;;;;9.82;5.57;;;4.50;99.90;;;;;;20830570;28;20037;-76
2021/11/18 03:55:52;;;;;;;9.50;5.47;;;4.30;99.90;;;;;;20831093;28;20035;-76
2021/11/18 04:05:53;;;;;;;11.27;5.88;;;4.40;99.90;;;;;;20831221;28;20037;-77
2021/11/18 04:15:54;;;;;;;;;;;4.50;99.90;;;;;;20830828;28;20037;-77
2021/11/18 04:26:04;;;;;;;8.70;6.00;;;4.50;99.90;;;;;;20826684;28;20004;-76
2021/11/18 04:36:10;;;;;;;12.70;7.15;;;4.40;99.90;;;;;;20826050;28;20033;-76
2021/11/18 04:46:12;;;;;;;9.80;6.15;;;4.40;99.90;;;;;;20825151;28;20037;-76
2021/11/18 04:56:14;;;;;;;10.98;6.53;;;4.50;99.90;;;;;;20825433;28;20030;-76
2021/11/18 05:06:21;;;;;;;11.07;6.35;;;4.50;99.90;;;;;;20826529;28;20030;-75
2021/11/18 05:16:22;;;;;;;11.65;6.35;;;4.50;99.90;;;;;;20823840;28;20025;-75
2021/11/18 05:26:25;;;;;;;9.68;6.38;;;4.50;99.90;;;;;;20806970;28;20029;-75
2021/11/18 05:36:29;;;;;;;9.60;5.95;;;4.50;99.90;;;;;;20824099;28;20022;-75
2021/11/18 05:46:31;;;;;;;;;;;4.60;99.90;;;;;;20755110;28;20488;-75
2021/11/18 05:56:33;;;;;;;8.52;5.20;;;4.70;99.90;;;;;;20750936;28;19917;-75
2021/11/18 06:06:35;;;;;;;10.63;5.22;;;4.70;99.90;;;;;;20755042;28;20118;-75
2021/11/18 06:16:36;;;;;;;8.20;5.25;;;4.80;99.90;;;;;;20752707;28;20028;-76
2021/11/18 06:26:37;;;;;;;13.13;6.82;;;4.70;99.90;;;;;;20753725;28;20040;-77
2021/11/18 06:36:40;;;;;;;12.27;5.70;;;4.60;99.90;;;;;;20752113;28;20034;-77
2021/11/18 06:46:41;;;;;;;;;;;4.10;99.90;;;;;;20753052;28;20496;-77
2021/11/18 06:56:42;;;;;;;25.77;9.50;;;3.60;99.90;;;;;;20751803;28;19965;-77
2021/11/18 07:06:43;;;;;;;11.68;6.57;;;3.70;99.90;;;;;;20733867;28;20030;-77
2021/11/18 07:16:51;;;;;;;14.63;6.03;;;3.80;99.90;;;;;;20754678;28;20025;-74
2021/11/18 07:26:53;;;;;;;10.25;5.57;;;3.50;99.90;;;;;;20749975;28;20452;-77
2021/11/18 07:36:54;;;;;;;;;;;5.50;99.90;;;;;;20792314;28;20058;-78
2021/11/18 07:46:58;;;;;;;13.45;6.78;;;4.70;99.90;;;;;;20791745;28;19916;-78
2021/11/18 07:57:02;;;;;;;9.18;5.15;;;4.90;99.90;;;;;;20779637;28;20423;-76
2021/11/18 08:07:04;;;;;;;16.70;5.63;;;5.60;99.90;;;;;;20749023;28;20029;-76
2021/11/18 08:17:05;;;;;;;11.95;6.45;;;6.70;99.90;;;;;;20661604;23;20062;-79
2021/11/18 08:27:06;;;;;;;9.00;5.35;;;7.10;99.90;;;;;;20613457;28;20039;-78
2021/11/18 08:37:12;;;;;;;11.05;6.10;;;7.90;99.90;;;;;;20618186;28;20039;-78
2021/11/18 08:47:17;;;;;;;13.18;5.97;;;7.80;99.90;;;;;;20586371;28;20057;-78
2021/11/18 08:57:19;;;;;;;9.45;6.07;;;7.90;99.90;;;;;;20612807;28;20031;-79
2021/11/18 09:07:41;;;;;;;10.30;6.30;;;7.20;99.90;;;;;;20614711;28;20433;-79
2021/11/18 09:17:42;;;;;;;17.97;5.70;;;6.80;99.90;;;;;;20629566;28;20031;-79
2021/11/18 09:28:12;;;;;;;11.75;6.65;;;6.80;99.90;;;;;;20607802;28;20086;-79
2021/11/18 09:38:22;;;;;;;10.30;6.38;;;6.90;99.90;;;;;;20624599;28;20035;-78
2021/11/18 09:48:44;;;;;;;13.15;7.40;;;7.00;99.90;;;;;;20618126;28;20031;-80
2021/11/18 09:59:11;;;;;;;14.30;7.30;;;7.00;99.90;;;;;;20617599;28;20123;-79
2021/11/18 10:09:24;;;;;;;13.18;7.10;;;7.00;99.90;;;;;;20613469;28;20424;-79
2021/11/18 10:19:32;;;;;;;13.77;7.28;;;7.40;99.90;;;;;;20608391;28;20035;-79
2021/11/18 10:29:34;;;;;;;13.07;6.43;;;7.90;99.90;;;;;;20628688;28;20041;-79
2021/11/18 10:39:56;;;;;;;12.15;6.60;;;8.20;99.90;;;;;;20622178;28;20543;-79
2021/11/18 10:50:03;;;;;;;;;;;8.70;99.90;;;;;;20615825;28;20039;-79
2021/11/18 11:00:19;;;;;;;11.18;6.25;;;10.20;99.90;;;;;;20607177;28;19943;-80
2021/11/18 11:10:23;;;;;;;9.75;5.47;;;10.80;99.90;;;;;;20628224;28;20027;-79
2021/11/18 11:20:51;;;;;;;5.57;2.67;;;11.10;99.90;;;;;;20634651;28;20041;-78
2021/11/18 11:31:23;;;;;;;6.18;3.35;;;9.50;99.90;;;;;;20590232;28;20035;-78
2021/11/18 11:41:51;;;;;;;6.60;3.20;;;11.70;99.90;;;;;;20615278;28;20041;-78
2021/11/18 11:52:13;;;;;;;5.22;3.75;;;12.20;99.90;;;;;;20596667;28;20090;-81
2021/11/18 12:02:49;;;;;;;14.73;9.43;;;12.50;99.90;;;;;;20609184;28;20062;-79
2021/11/18 12:13:18;;;;;;;7.60;5.10;;;12.60;99.90;;;;;;20608830;28;20034;-78
2021/11/18 12:23:20;;;;;;;6.43;4.53;;;11.90;99.90;;;;;;20604193;28;20117;-77
2021/11/18 12:33:21;;;;;;;7.25;4.65;;;11.70;99.90;;;;;;20598870;28;20073;-77
2021/11/18 12:43:43;;;;;;;10.80;5.87;;;11.90;99.90;;;;;;20610891;28;20509;-77
2021/11/18 12:54:08;;;;;;;6.97;4.10;;;12.10;99.90;;;;;;20586804;28;20038;-78
2021/11/18 13:04:09;;;;;;;6.00;3.88;;;12.90;99.90;;;;;;20581966;28;20039;-78
2021/11/18 13:14:10;;;;;;;10.63;5.97;;;12.90;99.90;;;;;;20580883;28;20034;-77
2021/11/18 13:24:11;;;;;;;11.47;7.07;;;13.00;99.90;;;;;;20563633;28;20043;-78
2021/11/18 13:34:31;;;;;;;5.45;3.95;;;12.50;99.90;;;;;;20578997;28;20130;-76
2021/11/18 13:44:36;;;;;;;6.15;4.13;;;11.30;99.90;;;;;;20577262;28;20066;-77
2021/11/18 13:54:47;;;;;;;5.22;3.80;;;11.60;99.90;;;;;;20577125;28;20047;-76
2021/11/18 14:05:02;;;;;;;4.28;3.40;;;11.30;99.90;;;;;;20577251;28;20031;-76
2021/11/18 14:19:39;;;;;;;5.60;4.05;;;12.30;99.90;;;;;;20923635;22;20419;-75
2021/11/18 14:30:05;;;;;;;7.82;3.55;;;12.70;99.90;;;;;;20897552;28;20105;-77
2021/11/18 14:40:20;;;;;;;9.25;3.83;;;12.50;99.90;;;;;;20899835;28;20124;-77
2021/11/18 14:50:23;;;;;;;6.13;3.88;;;12.00;99.90;;;;;;20900723;28;20116;-77
2021/11/18 15:00:50;;;;;;;8.63;3.95;;;10.90;99.90;;;;;;20882069;28;20487;-78
2021/11/18 15:10:52;;;;;;;38.63;15.02;;;10.90;99.90;;;;;;20913287;28;20033;-78
2021/11/18 15:20:54;;;;;;;11.40;5.40;;;11.00;99.90;;;;;;20900840;28;20044;-77
2021/11/18 15:31:00;;;;;;;4.82;3.10;;;9.80;99.90;;;;;;20839698;28;20096;-77
2021/11/18 15:41:03;;;;;;;6.65;3.92;;;9.10;99.90;;;;;;20840566;28;20029;-76
2021/11/18 15:51:05;;;;;;;8.20;4.38;;;7.80;99.90;;;;;;20838280;28;20043;-77
2021/11/18 16:01:10;;;;;;;11.30;6.90;;;7.00;99.90;;;;;;20835481;28;20044;-77
2021/11/18 16:11:35;;;;;;;13.55;6.95;;;7.00;99.90;;;;;;20831221;28;20443;-76
2021/11/18 16:21:40;;;;;;;12.10;7.45;;;6.30;99.90;;;;;;20838451;28;20487;-76
2021/11/18 16:31:44;;;;;;;9.93;5.60;;;5.90;99.90;;;;;;20840368;28;21303;-77
2021/11/18 16:41:48;;;;;;;10.90;6.07;;;5.20;99.90;;;;;;20819948;28;20065;-76
2021/11/18 16:51:54;;;;;;;9.43;5.65;;;5.10;99.90;;;;;;20833472;28;20037;-76
2021/11/18 17:02:05;;;;;;;15.35;8.48;;;4.80;99.90;;;;;;20833204;28;20090;-75
2021/11/18 17:12:07;;;;;;;12.20;5.97;;;4.30;99.90;;;;;;20832341;28;20551;-76
2021/11/18 17:22:12;;;;;;;15.13;6.40;;;4.50;99.90;;;;;;20833265;28;20468;-75
2021/11/18 17:32:16;;;;;;;11.63;6.38;;;4.20;99.90;;;;;;20836943;28;20025;-76
2021/11/18 17:42:21;;;;;;;14.52;7.65;;;3.90;99.90;;;;;;20834884;28;20091;-77
2021/11/18 17:52:29;;;;;;;13.27;7.53;;;3.80;99.90;;;;;;20814138;28;20029;-76
2021/11/18 18:02:34;;;;;;;16.27;8.80;;;3.70;99.90;;;;;;20831472;28;20094;-76
2021/11/18 18:12:35;;;;;;;16.30;7.80;;;3.70;99.90;;;;;;20835021;28;20033;-77
2021/11/18 18:22:36;;;;;;;13.90;7.22;;;3.30;99.90;;;;;;20834921;28;20032;-76
2021/11/18 18:32:38;;;;;;;15.55;8.23;;;3.40;99.90;;;;;;20831768;28;20036;-76
2021/11/18 18:42:40;;;;;;;18.55;8.68;;;3.40;99.90;;;;;;20836075;28;20047;-76
2021/11/18 18:52:42;;;;;;;15.43;7.03;;;3.20;99.90;;;;;;20833968;28;20553;-77
2021/11/18 19:02:44;;;;;;;19.35;10.93;;;3.20;99.90;;;;;;20843398;28;20033;-75
2021/11/18 19:12:46;;;;;;;13.43;7.43;;;3.50;99.90;;;;;;20852128;28;20514;-77
2021/11/18 19:22:48;;;;;;;15.43;8.48;;;3.00;99.90;;;;;;20863014;28;20028;-78
2021/11/18 19:32:53;;;;;;;14.25;7.10;;;2.80;99.90;;;;;;20848272;28;20074;-76
2021/11/18 19:42:55;;;;;;;17.48;9.10;;;2.80;99.90;;;;;;20856238;28;20033;-76
2021/11/18 19:52:59;;;;;;;38.70;14.70;;;2.90;99.90;;;;;;20870648;28;20025;-76
2021/11/18 20:03:02;;;;;;;28.90;8.60;;;2.70;99.90;;;;;;20875284;28;20392;-77
2021/11/18 20:13:05;;;;;;;15.73;7.75;;;2.60;99.90;;;;;;20876734;23;20099;-76
2021/11/18 20:23:07;;;;;;;14.32;7.32;;;2.30;99.90;;;;;;20835511;28;20407;-76
2021/11/18 20:33:10;;;;;;;12.43;6.60;;;2.30;99.90;;;;;;20830165;28;20029;-76
2021/11/18 20:43:16;;;;;;;12.00;6.43;;;2.60;99.90;;;;;;20825569;28;20038;-76
2021/11/18 20:53:17;;;;;;;18.92;6.88;;;2.20;99.90;;;;;;20826798;28;20099;-76
2021/11/18 21:03:18;;;;;;;15.98;7.80;;;2.00;99.90;;;;;;20828059;28;20033;-76
2021/11/18 21:13:22;;;;;;;21.77;9.50;;;2.40;99.90;;;;;;20826571;28;20407;-78
2021/11/18 21:23:24;;;;;;;15.13;6.63;;;2.40;99.90;;;;;;20832481;28;20091;-77
2021/11/18 21:33:25;;;;;;;10.20;5.95;;;2.20;99.90;;;;;;20833213;28;20042;-77
2021/11/18 21:43:29;;;;;;;13.40;6.43;;;2.10;99.90;;;;;;20827467;28;20029;-76
2021/11/18 21:53:31;;;;;;;11.90;6.78;;;1.90;99.90;;;;;;20826612;28;20033;-76
2021/11/18 22:03:32;;;;;;;15.15;7.95;;;1.80;99.90;;;;;;20828317;28;20550;-76
2021/11/18 22:13:34;;;;;;;15.95;7.95;;;1.50;99.90;;;;;;20828774;28;20091;-77
2021/11/18 22:23:35;;;;;;;18.02;8.90;;;1.60;99.90;;;;;;20842822;28;20033;-77
2021/11/18 22:33:39;;;;;;;17.50;9.10;;;1.30;99.90;;;;;;20836565;28;20134;-77
2021/11/18 22:43:40;;;;;;;19.92;8.93;;;1.20;99.90;;;;;;20851128;28;20056;-77
2021/11/18 22:53:42;;;;;;;16.52;8.73;;;1.30;99.90;;;;;;20844554;28;20095;-76
2021/11/18 23:03:43;;;;;;;19.27;10.27;;;1.10;99.90;;;;;;20844283;28;20033;-77
2021/11/18 23:13:44;;;;;;;10.60;5.97;;;1.10;99.90;;;;;;20845047;28;20033;-77
2021/11/18 23:23:45;;;;;;;10.45;6.00;;;0.90;99.90;;;;;;20842155;28;20033;-76
2021/11/18 23:33:47;;;;;;;12.82;6.28;;;0.90;99.90;;;;;;20842962;28;20041;-77
2021/11/18 23:43:48;;;;;;;26.77;9.48;;;0.90;99.90;;;;;;20849043;28;20442;-79
2021/11/18 23:53:51;;;;;;;59.40;12.95;;;1.20;99.90;;;;;;20858344;28;20029;-79
